createdAt,value
2022-10-07T00:01:40.712Z,8.00
2022-10-07T00:04:46.257Z,7.60
2022-10-07T00:07:49.346Z,7.83
2022-10-07T00:10:52.376Z,8.63
2022-10-07T00:13:59.186Z,7.87
2022-10-07T00:17:02.695Z,7.33
2022-10-07T00:20:07.048Z,7.40
2022-10-07T00:23:10.207Z,8.53
2022-10-07T00:26:50.756Z,8.40
2022-10-07T00:31:02.969Z,7.67
2022-10-07T00:34:36.784Z,7.80
2022-10-07T00:37:43.272Z,8.10
2022-10-07T00:40:47.270Z,7.90
2022-10-07T00:43:50.358Z,8.63
2022-10-07T00:46:55.302Z,7.83
2022-10-07T00:50:03.813Z,8.13
2022-10-07T00:53:07.296Z,8.47
2022-10-07T00:56:11.313Z,7.43
2022-10-07T00:59:16.554Z,7.90
2022-10-07T01:02:21.051Z,7.30
2022-10-07T01:05:24.354Z,6.70
2022-10-07T01:08:27.670Z,8.30
2022-10-07T01:11:44.768Z,7.93
2022-10-07T01:14:58.159Z,7.20
2022-10-07T01:18:11.372Z,9.00
2022-10-07T01:21:23.973Z,8.10
2022-10-07T01:25:11.122Z,8.77
2022-10-07T01:34:06.785Z,8.13
2022-10-07T01:41:56.749Z,8.43
2022-10-07T01:51:30.602Z,8.27
2022-10-07T01:59:16.089Z,7.30
2022-10-07T02:04:04.222Z,7.90
2022-10-07T02:16:51.482Z,8.43
2022-10-07T02:20:16.537Z,8.10
2022-10-07T02:33:13.958Z,8.43
2022-10-07T02:36:26.959Z,7.43
2022-10-07T02:40:51.492Z,8.83
2022-10-07T02:44:18.926Z,7.03
2022-10-07T02:47:31.971Z,7.80
2022-10-07T02:51:13.954Z,8.40
2022-10-07T02:54:36.604Z,7.40
2022-10-07T02:57:50.942Z,7.50
2022-10-07T03:01:00.563Z,8.00
2022-10-07T03:04:06.050Z,8.37
2022-10-07T03:07:10.069Z,8.30
2022-10-07T03:10:15.103Z,7.87
2022-10-07T03:13:19.932Z,8.57
2022-10-07T03:16:27.955Z,8.50
2022-10-07T03:19:31.304Z,8.77
2022-10-07T03:22:34.796Z,8.07
2022-10-07T03:25:37.778Z,8.03
2022-10-07T03:28:42.314Z,8.77
2022-10-07T03:31:45.610Z,9.00
2022-10-07T03:34:49.042Z,8.40
2022-10-07T03:37:52.079Z,7.93
2022-10-07T03:40:55.104Z,8.37
2022-10-07T03:43:59.744Z,9.20
2022-10-07T03:47:09.897Z,9.20
2022-10-07T03:50:14.030Z,9.50
2022-10-07T03:53:17.087Z,8.93
2022-10-07T03:56:20.068Z,9.93
2022-10-07T03:59:24.414Z,10.53
2022-10-07T04:02:27.436Z,9.13
2022-10-07T04:05:32.578Z,9.07
2022-10-07T04:08:36.801Z,9.90
2022-10-07T04:11:42.065Z,8.60
2022-10-07T04:14:46.886Z,9.30
2022-10-07T04:17:50.798Z,10.40
2022-10-07T04:20:55.846Z,10.70
2022-10-07T04:23:58.860Z,10.30
2022-10-07T04:27:05.058Z,9.40
2022-10-07T04:30:11.398Z,8.40
2022-10-07T04:33:14.686Z,8.10
2022-10-07T04:36:18.285Z,9.47
2022-10-07T04:39:56.045Z,9.13
2022-10-07T04:43:10.147Z,8.57
2022-10-07T04:46:14.888Z,8.40
2022-10-07T04:49:25.115Z,7.93
2022-10-07T04:52:29.618Z,8.13
2022-10-07T04:55:37.313Z,9.17
2022-10-07T04:58:40.925Z,9.40
2022-10-07T05:01:45.608Z,10.50
2022-10-07T05:04:49.324Z,9.37
2022-10-07T05:07:53.756Z,8.73
2022-10-07T05:10:59.399Z,9.40
2022-10-07T05:14:04.300Z,8.37
2022-10-07T05:17:10.226Z,9.30
2022-10-07T05:20:13.251Z,9.90
2022-10-07T05:23:18.430Z,9.50
2022-10-07T05:26:21.913Z,9.37
2022-10-07T05:29:30.015Z,8.93
2022-10-07T05:32:34.361Z,9.30
2022-10-07T05:35:37.589Z,8.63
2022-10-07T05:38:40.679Z,8.63
2022-10-07T05:41:46.604Z,8.77
2022-10-07T05:44:53.167Z,9.10
2022-10-07T05:47:58.328Z,9.70
2022-10-07T05:51:02.021Z,9.57
2022-10-07T05:54:06.862Z,9.23
2022-10-07T05:57:17.105Z,9.40
2022-10-07T06:00:20.944Z,10.63
2022-10-07T06:03:28.339Z,10.17
2022-10-07T06:06:33.113Z,10.20
2022-10-07T06:09:57.161Z,10.23
2022-10-07T06:13:09.142Z,10.73
2022-10-07T06:16:14.580Z,10.63
2022-10-07T06:19:22.698Z,10.73
2022-10-07T06:22:27.951Z,11.77
2022-10-07T06:25:31.140Z,10.77
2022-10-07T06:28:37.187Z,12.40
2022-10-07T06:31:40.619Z,11.50
2022-10-07T06:34:45.237Z,13.37
2022-10-07T06:37:49.152Z,12.13
2022-10-07T06:40:58.986Z,11.93
2022-10-07T06:44:04.391Z,12.27
2022-10-07T06:47:11.446Z,13.10
2022-10-07T06:50:17.483Z,12.17
2022-10-07T06:53:21.299Z,12.77
2022-10-07T06:56:24.504Z,12.83
2022-10-07T07:00:20.752Z,12.10
2022-10-07T07:11:55.619Z,12.53
2022-10-07T07:15:05.044Z,12.43
2022-10-07T07:18:11.371Z,12.03
2022-10-07T07:21:14.968Z,11.43
2022-10-07T07:24:20.825Z,12.87
2022-10-07T07:27:24.513Z,13.00
2022-10-07T07:30:28.150Z,11.73
2022-10-07T07:33:32.929Z,11.60
2022-10-07T07:36:37.130Z,11.63
2022-10-07T07:39:42.672Z,12.13
2022-10-07T07:42:49.341Z,10.80
2022-10-07T07:45:53.728Z,10.37
2022-10-07T07:48:58.450Z,11.20
2022-10-07T07:52:03.789Z,10.97
2022-10-07T07:55:13.037Z,11.87
2022-10-07T07:58:17.701Z,14.43
2022-10-07T08:01:20.826Z,9.67
2022-10-07T08:04:24.947Z,10.10
2022-10-07T08:07:28.178Z,10.20
2022-10-07T08:10:32.699Z,9.93
2022-10-07T08:13:37.908Z,11.43
2022-10-07T08:16:43.735Z,12.47
2022-10-07T08:19:46.886Z,9.03
2022-10-07T08:22:51.420Z,9.83
2022-10-07T08:25:57.871Z,9.43
2022-10-07T08:29:02.603Z,9.63
2022-10-07T08:32:06.841Z,8.73
2022-10-07T08:35:10.285Z,8.27
2022-10-07T08:38:14.576Z,8.27
2022-10-07T08:41:33.211Z,10.07
2022-10-07T08:44:41.268Z,8.20
2022-10-07T08:47:46.997Z,8.40
2022-10-07T08:50:59.079Z,8.80
2022-10-07T08:54:02.065Z,7.53
2022-10-07T08:57:16.186Z,7.40
2022-10-07T09:00:22.327Z,7.70
2022-10-07T09:03:38.070Z,7.83
2022-10-07T09:06:46.755Z,7.93
2022-10-07T09:09:54.949Z,7.17
2022-10-07T09:13:04.722Z,7.03
2022-10-07T09:16:13.396Z,6.70
2022-10-07T09:19:24.128Z,7.60
2022-10-07T09:22:33.801Z,7.67
2022-10-07T09:25:37.519Z,8.00
2022-10-07T09:28:42.302Z,7.20
2022-10-07T09:31:45.299Z,5.53
2022-10-07T09:34:48.988Z,5.17
2022-10-07T09:38:04.478Z,5.25
2022-10-07T09:41:19.471Z,4.60
2022-10-07T09:44:29.488Z,5.20
2022-10-07T09:47:37.665Z,4.28
2022-10-07T09:50:43.690Z,4.15
2022-10-07T09:54:00.027Z,4.60
2022-10-07T09:57:06.270Z,4.18
2022-10-07T10:00:30.611Z,4.30
2022-10-07T10:03:38.897Z,4.53
2022-10-07T10:06:51.534Z,3.75
2022-10-07T10:10:05.877Z,4.10
2022-10-07T10:13:28.214Z,4.63
2022-10-07T10:16:37.561Z,4.20
2022-10-07T10:19:40.859Z,3.95
2022-10-07T10:22:44.058Z,4.22
2022-10-07T10:26:12.837Z,4.50
2022-10-07T10:29:39.083Z,4.10
2022-10-07T10:33:09.874Z,3.85
2022-10-07T10:36:20.967Z,3.70
2022-10-07T10:39:42.782Z,4.65
2022-10-07T10:42:55.565Z,4.18
2022-10-07T10:46:18.073Z,4.20
2022-10-07T10:49:30.864Z,3.80
2022-10-07T10:52:51.032Z,4.07
2022-10-07T10:56:09.120Z,4.15
2022-10-07T10:59:30.035Z,4.07
2022-10-07T11:03:06.546Z,3.92
2022-10-07T11:06:15.734Z,3.72
2022-10-07T11:09:30.714Z,3.60
2022-10-07T11:12:39.823Z,3.78
2022-10-07T11:15:47.488Z,3.28
2022-10-07T11:18:57.299Z,3.60
2022-10-07T11:22:02.380Z,4.05
2022-10-07T11:25:18.796Z,3.60
2022-10-07T11:28:27.520Z,3.20
2022-10-07T11:31:37.361Z,3.65
2022-10-07T11:34:53.631Z,3.15
2022-10-07T11:38:08.003Z,3.15
2022-10-07T11:41:20.837Z,2.67
2022-10-07T11:44:29.690Z,2.95
2022-10-07T11:47:36.908Z,3.35
2022-10-07T11:50:47.306Z,3.08
2022-10-07T11:53:55.340Z,3.50
2022-10-07T11:57:00.779Z,3.72
2022-10-07T12:00:09.056Z,3.50
2022-10-07T12:03:50.200Z,3.80
2022-10-07T12:07:43.417Z,3.08
2022-10-07T12:10:54.712Z,3.10
2022-10-07T12:14:42.034Z,3.15
2022-10-07T12:17:55.318Z,2.83
2022-10-07T12:21:07.887Z,3.22
2022-10-07T12:24:16.692Z,3.50
2022-10-07T12:27:24.284Z,3.08
2022-10-07T12:30:52.352Z,2.80
2022-10-07T12:33:59.030Z,3.00
2022-10-07T12:37:47.186Z,3.42
2022-10-07T12:41:00.890Z,3.15
2022-10-07T12:44:13.882Z,3.15
2022-10-07T12:47:23.443Z,2.92
2022-10-07T12:50:27.811Z,2.72
2022-10-07T12:53:42.163Z,2.25
2022-10-07T12:56:45.983Z,2.90
2022-10-07T13:00:02.104Z,2.83
2022-10-07T13:03:53.314Z,2.78
2022-10-07T13:07:46.221Z,2.92
2022-10-07T13:11:47.538Z,2.85
2022-10-07T13:15:12.017Z,2.80
2022-10-07T13:18:23.438Z,2.78
2022-10-07T13:21:33.479Z,3.03
2022-10-07T13:24:42.094Z,2.90
2022-10-07T13:27:52.226Z,3.15
2022-10-07T13:30:55.238Z,2.67
2022-10-07T13:34:01.171Z,2.42
2022-10-07T13:37:27.499Z,2.88
2022-10-07T13:40:35.300Z,3.80
2022-10-07T13:43:38.883Z,2.88
2022-10-07T13:46:58.466Z,2.38
2022-10-07T13:50:02.348Z,2.53
2022-10-07T13:53:06.790Z,3.80
2022-10-07T13:56:21.899Z,2.63
2022-10-07T13:59:28.196Z,3.50
2022-10-07T14:02:33.394Z,2.80
2022-10-07T14:05:52.326Z,3.17
2022-10-07T14:08:56.902Z,2.80
2022-10-07T14:12:06.896Z,2.08
2022-10-07T14:15:15.969Z,2.50
2022-10-07T14:18:19.435Z,2.83
2022-10-07T14:21:22.377Z,2.53
2022-10-07T14:24:27.135Z,2.45
2022-10-07T14:27:41.330Z,2.70
2022-10-07T14:31:04.178Z,2.47
2022-10-07T14:34:31.826Z,2.35
2022-10-07T14:37:34.808Z,2.42
2022-10-07T14:40:39.067Z,2.75
2022-10-07T14:43:45.556Z,2.72
2022-10-07T14:46:48.575Z,2.70
2022-10-07T14:49:53.226Z,2.22
2022-10-07T14:52:56.233Z,2.50
2022-10-07T14:56:00.530Z,2.47
2022-10-07T14:59:03.700Z,3.05
2022-10-07T15:02:07.082Z,2.58
2022-10-07T15:05:11.169Z,2.53
2022-10-07T15:08:14.546Z,2.83
2022-10-07T15:11:21.394Z,3.08
2022-10-07T15:14:24.620Z,3.42
2022-10-07T15:17:27.663Z,2.90
2022-10-07T15:20:30.654Z,3.13
2022-10-07T15:23:33.612Z,3.25
2022-10-07T15:26:38.170Z,3.83
2022-10-07T15:29:41.853Z,3.67
2022-10-07T15:32:45.158Z,4.38
2022-10-07T15:35:48.335Z,3.50
2022-10-07T15:38:51.489Z,3.92
2022-10-07T15:41:55.955Z,3.55
2022-10-07T15:44:59.277Z,3.95
2022-10-07T15:48:02.215Z,3.80
2022-10-07T15:51:05.666Z,3.95
2022-10-07T15:54:09.160Z,3.92
2022-10-07T15:57:14.356Z,4.05
2022-10-07T16:00:17.862Z,3.63
2022-10-07T16:03:20.828Z,4.50
2022-10-07T16:06:27.585Z,4.72
2022-10-07T16:09:30.652Z,4.00
2022-10-07T16:12:34.937Z,4.30
2022-10-07T16:15:38.106Z,4.00
2022-10-07T16:18:43.690Z,2.83
2022-10-07T16:21:46.600Z,3.80
2022-10-07T16:24:50.178Z,3.95
2022-10-07T16:28:11.897Z,3.75
2022-10-07T16:31:14.942Z,3.95
2022-10-07T16:34:19.479Z,3.47
2022-10-07T16:37:22.409Z,4.23
2022-10-07T16:40:25.314Z,4.53
2022-10-07T16:43:29.880Z,3.80
2022-10-07T16:46:33.302Z,4.00
2022-10-07T16:49:36.444Z,3.97
2022-10-07T16:52:39.362Z,4.40
2022-10-07T16:55:42.332Z,4.00
2022-10-07T16:58:47.557Z,3.83
2022-10-07T17:01:52.807Z,4.73
2022-10-07T17:04:55.862Z,4.70
2022-10-07T17:07:59.020Z,4.37
2022-10-07T17:11:02.692Z,6.23
2022-10-07T17:14:09.462Z,5.87
2022-10-07T17:17:12.668Z,9.00
2022-10-07T17:20:16.001Z,8.17
2022-10-07T17:23:19.165Z,6.50
2022-10-07T17:26:22.100Z,7.53
2022-10-07T17:29:26.899Z,7.10
2022-10-07T17:32:29.822Z,7.03
2022-10-07T17:35:33.314Z,5.40
2022-10-07T17:38:40.163Z,6.27
2022-10-07T17:41:43.491Z,5.70
2022-10-07T17:44:47.780Z,8.87
2022-10-07T17:47:50.708Z,5.20
2022-10-07T17:50:53.626Z,5.30
2022-10-07T17:53:57.653Z,6.03
2022-10-07T17:57:00.587Z,5.00
2022-10-07T18:00:06.690Z,6.60
2022-10-07T18:03:14.918Z,5.33
2022-10-07T18:06:18.298Z,5.00
2022-10-07T18:09:22.699Z,6.07
2022-10-07T18:12:43.412Z,5.90
2022-10-07T18:15:58.774Z,7.00
2022-10-07T18:19:02.079Z,6.83
2022-10-07T18:22:05.065Z,5.67
2022-10-07T18:25:10.266Z,5.90
2022-10-07T18:28:13.884Z,8.10
2022-10-07T18:31:19.718Z,6.63
2022-10-07T18:34:22.938Z,7.43
2022-10-07T18:37:25.927Z,9.10
2022-10-07T18:40:28.868Z,6.57
2022-10-07T18:43:32.643Z,7.63
2022-10-07T18:46:37.522Z,8.37
2022-10-07T18:49:40.479Z,8.77
2022-10-07T18:52:43.461Z,9.30
2022-10-07T18:55:46.372Z,8.57
2022-10-07T18:58:51.975Z,9.00
2022-10-07T19:01:56.366Z,9.90
2022-10-07T19:04:59.353Z,8.27
2022-10-07T19:08:02.561Z,8.67
2022-10-07T19:11:06.601Z,8.00
2022-10-07T19:14:09.702Z,7.63
2022-10-07T19:17:14.075Z,8.33
2022-10-07T19:20:17.321Z,13.57
2022-10-07T19:23:20.448Z,14.77
2022-10-07T19:26:27.165Z,13.63
2022-10-07T19:29:31.097Z,17.10
2022-10-07T19:32:35.413Z,15.07
2022-10-07T19:35:39.139Z,12.40
2022-10-07T19:38:44.352Z,10.27
2022-10-07T19:41:48.133Z,9.90
2022-10-07T19:44:51.071Z,10.40
2022-10-07T19:47:56.109Z,10.83
2022-10-07T19:51:01.224Z,10.97
2022-10-07T19:54:09.823Z,11.33
2022-10-07T19:57:12.891Z,9.70
2022-10-07T20:00:16.079Z,9.73
2022-10-07T20:03:20.402Z,11.13
2022-10-07T20:06:25.146Z,8.23
2022-10-07T20:09:28.121Z,8.33
2022-10-07T20:12:31.317Z,9.17
2022-10-07T20:15:34.613Z,8.27
2022-10-07T20:18:40.222Z,7.93
2022-10-07T20:21:43.957Z,9.80
2022-10-07T20:24:47.127Z,10.57
2022-10-07T20:27:50.515Z,9.10
2022-10-07T20:30:54.554Z,9.80
2022-10-07T20:34:01.578Z,7.83
2022-10-07T20:37:04.534Z,10.40
2022-10-07T20:40:25.885Z,10.60
2022-10-07T20:43:29.885Z,9.83
2022-10-07T20:46:34.121Z,9.30
2022-10-07T20:49:41.620Z,9.23
2022-10-07T20:52:45.330Z,9.00
2022-10-07T20:55:48.537Z,8.73
2022-10-07T20:58:52.422Z,8.40
2022-10-07T21:01:59.751Z,9.60
2022-10-07T21:05:11.019Z,9.50
2022-10-07T21:08:18.752Z,9.80
2022-10-07T21:11:36.361Z,10.47
2022-10-07T21:14:48.027Z,10.67
2022-10-07T21:17:53.721Z,9.77
2022-10-07T21:20:58.579Z,9.87
2022-10-07T21:24:03.686Z,11.77
2022-10-07T21:27:10.503Z,10.67
2022-10-07T21:30:16.934Z,12.43
2022-10-07T21:33:20.456Z,11.43
2022-10-07T21:36:30.635Z,11.50
2022-10-07T21:39:33.709Z,12.13
2022-10-07T21:42:36.948Z,14.17
2022-10-07T21:45:40.976Z,11.67
2022-10-07T21:48:44.082Z,12.87
2022-10-07T21:51:48.385Z,12.80
2022-10-07T21:54:52.064Z,13.00
2022-10-07T21:57:55.195Z,13.23
2022-10-07T22:00:58.238Z,11.97
2022-10-07T22:04:03.541Z,10.60
2022-10-07T22:07:25.470Z,11.97
2022-10-07T22:10:28.445Z,10.97
2022-10-07T22:13:33.852Z,11.47
2022-10-07T22:16:36.863Z,11.63
2022-10-07T22:19:39.794Z,10.67
2022-10-07T22:22:44.409Z,12.10
2022-10-07T22:25:48.809Z,12.43
2022-10-07T22:28:52.118Z,13.73
2022-10-07T22:31:55.347Z,12.57
2022-10-07T22:35:15.909Z,12.07
2022-10-07T22:38:20.560Z,11.63
2022-10-07T22:41:25.215Z,11.00
2022-10-07T22:44:28.714Z,11.17
2022-10-07T22:47:31.789Z,11.60
2022-10-07T22:50:34.714Z,11.60
2022-10-07T22:53:43.056Z,11.63
2022-10-07T22:56:49.690Z,11.50
2022-10-07T23:00:00.205Z,13.30
2022-10-07T23:03:03.885Z,11.93
2022-10-07T23:06:08.165Z,12.27
2022-10-07T23:09:12.410Z,11.97
2022-10-07T23:12:15.339Z,12.07
2022-10-07T23:15:19.616Z,11.90
2022-10-07T23:18:34.860Z,11.13
2022-10-07T23:21:38.544Z,12.43
2022-10-07T23:24:45.660Z,12.20
2022-10-07T23:28:08.977Z,11.77
2022-10-07T23:31:18.535Z,12.40
2022-10-07T23:34:21.999Z,10.67
2022-10-07T23:37:26.153Z,12.50
2022-10-07T23:40:52.410Z,12.27
2022-10-07T23:44:05.846Z,12.23
2022-10-07T23:47:12.293Z,13.20
2022-10-07T23:50:25.780Z,12.77
2022-10-07T23:53:37.032Z,12.57
2022-10-07T23:56:41.762Z,11.47
2022-10-07T23:59:44.920Z,12.33
